Time;durP1;ratioP1;P1;durP2;ratioP2;P2;SDS_P1;SDS_P2;PMS_P1;PMS_P2;Temp;Humidity;BMP_temperature;BMP_pressure;BME280_temperature;BME280_humidity;BME280_pressure;Samples;Min_cycle;Max_cycle;Signal;HPM_P1;HPM_P2
2022/10/20 00:00:36;;;;;;;17.73;8.20;;;;;;;8.80;69.58;100333.72;10380287;28;20133;-66
2022/10/20 00:05:38;;;;;;;15.48;9.05;;;;;;;8.70;69.81;100328.06;10380439;28;20064;-66
2022/10/20 00:10:41;;;;;;;18.02;9.02;;;;;;;8.69;69.90;100335.94;10377954;28;20080;-66
2022/10/20 00:15:51;;;;;;;13.38;7.57;;;;;;;8.73;69.78;100333.13;10382926;28;20075;-67
2022/10/20 00:20:53;;;;;;;22.57;9.60;;;;;;;8.61;69.85;100325.03;10384331;28;20115;-67
2022/10/20 00:26:07;;;;;;;16.35;8.27;;;;;;;8.57;70.15;100315.66;10382988;28;20525;-66
2022/10/20 00:31:09;;;;;;;12.95;7.45;;;;;;;8.65;69.98;100318.75;10383409;28;20512;-66
2022/10/20 00:36:16;;;;;;;17.80;8.75;;;;;;;8.72;69.63;100314.97;10383736;28;20085;-66
2022/10/20 00:41:20;;;;;;;14.43;7.55;;;;;;;8.63;69.69;100292.75;10383359;28;20041;-66
2022/10/20 00:46:25;;;;;;;12.13;7.88;;;;;;;8.63;69.79;100284.09;10380914;28;20049;-66
2022/10/20 00:51:30;;;;;;;11.23;7.07;;;;;;;8.59;69.84;100277.31;10391154;28;20080;-66
2022/10/20 00:56:34;;;;;;;17.02;7.63;;;;;;;8.71;69.71;100276.75;10391503;28;21018;-66
2022/10/20 01:01:37;;;;;;;15.73;6.97;;;;;;;8.70;69.58;100269.84;10389084;28;20092;-66
2022/10/20 01:06:39;;;;;;;16.02;8.07;;;;;;;8.67;69.60;100254.34;10389944;28;20060;-66
2022/10/20 01:12:02;;;;;;;13.45;7.22;;;;;;;8.70;69.38;100259.44;10390739;28;20096;-66
2022/10/20 01:17:28;;;;;;;22.55;8.10;;;;;;;8.68;69.28;100262.13;10389714;28;20129;-66
2022/10/20 01:23:07;;;;;;;16.73;7.95;;;;;;;8.63;69.17;100271.91;10388293;28;20177;-67
2022/10/20 01:28:15;;;;;;;16.45;6.57;;;;;;;8.60;69.28;100264.25;10391079;28;20196;-66
2022/10/20 01:33:54;;;;;;;18.80;8.32;;;;;;;8.64;69.20;100257.97;10386326;28;20849;-66
2022/10/20 01:39:05;;;;;;;14.55;8.02;;;;;;;8.66;69.06;100247.47;10376118;28;20143;-66
2022/10/20 01:44:11;;;;;;;16.58;7.85;;;;;;;8.66;69.04;100235.28;10389868;28;20147;-66
2022/10/20 01:49:14;;;;;;;14.20;7.72;;;;;;;8.65;68.92;100230.97;10389372;28;20141;-66
2022/10/20 01:54:34;;;;;;;12.60;7.88;;;;;;;8.57;68.96;100216.59;10390191;28;20127;-66
2022/10/20 02:00:07;;;;;;;15.50;8.23;;;;;;;8.57;68.91;100211.38;10388894;28;20502;-66
2022/10/20 02:05:25;;;;;;;14.60;8.40;;;;;;;8.59;68.67;100215.59;10395131;28;20179;-66
2022/10/20 02:10:35;;;;;;;11.90;7.40;;;;;;;8.60;68.62;100211.25;10397185;28;20053;-66
2022/10/20 02:15:42;;;;;;;14.45;8.68;;;;;;;8.59;68.62;100197.34;10394928;28;20107;-66
2022/10/20 02:20:47;;;;;;;14.95;8.85;;;;;;;8.48;68.60;100180.53;10396763;28;20456;-66
2022/10/20 02:25:51;;;;;;;12.95;7.93;;;;;;;8.49;68.79;100180.47;10390934;28;20072;-66
2022/10/20 02:30:55;;;;;;;16.88;8.10;;;;;;;8.51;68.52;100177.78;10396459;28;20540;-66
2022/10/20 02:35:58;;;;;;;14.73;7.88;;;;;;;8.39;68.53;100158.34;10395235;28;20080;-66
2022/10/20 02:41:01;;;;;;;13.77;7.55;;;;;;;8.30;68.78;100157.97;10396846;28;20096;-66
2022/10/20 02:46:03;;;;;;;12.95;7.47;;;;;;;8.31;68.87;100152.66;10395153;28;20464;-67
2022/10/20 02:51:05;;;;;;;12.95;8.00;;;;;;;8.29;68.80;100161.47;10396673;28;20502;-66
2022/10/20 02:56:07;;;;;;;14.05;7.85;;;;;;;8.36;68.79;100160.28;10395620;28;20053;-67
2022/10/20 03:01:09;;;;;;;12.82;7.65;;;;;;;8.23;68.74;100161.75;10396147;28;20584;-66
2022/10/20 03:06:14;;;;;;;14.30;6.53;;;;;;;8.31;68.98;100167.44;10389098;28;20084;-67
2022/10/20 03:11:16;;;;;;;15.63;7.88;;;;;;;8.18;68.66;100155.91;10389555;28;20045;-66
2022/10/20 03:16:18;;;;;;;17.02;7.53;;;;;;;8.12;68.90;100161.41;10388306;28;20045;-66
2022/10/20 03:21:20;;;;;;;14.55;7.88;;;;;;;8.17;68.71;100142.03;10388866;28;20085;-66
2022/10/20 03:26:22;;;;;;;10.98;6.82;;;;;;;8.04;68.93;100123.50;10386722;28;20410;-66
2022/10/20 03:31:23;;;;;;;14.23;7.80;;;;;;;8.16;69.03;100142.94;10385044;28;20049;-66
2022/10/20 03:36:25;;;;;;;11.40;7.28;;;;;;;8.24;68.98;100138.22;10387892;28;20126;-66
2022/10/20 03:41:27;;;;;;;13.35;8.07;;;;;;;8.29;68.49;100122.38;10387438;28;20053;-66
2022/10/20 03:46:29;;;;;;;14.40;7.75;;;;;;;8.20;68.74;100123.66;10388143;28;20100;-66
2022/10/20 03:51:31;;;;;;;19.17;7.75;;;;;;;8.33;68.72;100129.13;10387252;28;20516;-68
2022/10/20 03:56:32;;;;;;;14.15;6.75;;;;;;;8.34;68.29;100110.00;10387216;28;20301;-67
2022/10/20 04:01:34;;;;;;;12.98;6.75;;;;;;;8.37;68.19;100122.84;10386062;28;20062;-67
2022/10/20 04:06:36;;;;;;;11.10;6.93;;;;;;;8.43;67.94;100099.97;10387318;28;20715;-67
2022/10/20 04:11:38;;;;;;;9.52;7.13;;;;;;;8.45;68.15;100100.72;10385750;28;20103;-67
2022/10/20 04:16:40;;;;;;;14.63;7.50;;;;;;;8.52;68.02;100104.75;10386788;28;20368;-67
2022/10/20 04:21:42;;;;;;;11.30;7.32;;;;;;;8.45;67.62;100092.91;10385741;28;20371;-67
2022/10/20 04:26:44;;;;;;;12.13;6.35;;;;;;;8.38;67.93;100096.75;10386564;28;20064;-67
2022/10/20 04:31:46;;;;;;;13.52;7.75;;;;;;;8.49;67.55;100083.16;10385620;28;20060;-67
2022/10/20 04:36:49;;;;;;;9.98;6.82;;;;;;;8.38;67.48;100080.25;10386879;28;20294;-67
2022/10/20 04:41:51;;;;;;;16.65;7.13;;;;;;;8.35;67.59;100068.22;10385669;28;20056;-67
2022/10/20 04:46:54;;;;;;;13.73;7.05;;;;;;;8.28;67.60;100060.78;10385462;28;20104;-67
2022/10/20 04:51:55;;;;;;;11.95;7.05;;;;;;;8.31;67.64;100044.97;10386682;28;20104;-67
2022/10/20 04:57:03;;;;;;;10.57;6.78;;;;;;;8.41;67.61;100033.19;10385860;28;20115;-67
2022/10/20 05:02:04;;;;;;;17.10;7.40;;;;;;;8.40;67.33;100027.16;10383665;28;20060;-67
2022/10/20 05:07:06;;;;;;;14.25;7.38;;;;;;;8.43;67.45;100026.13;10385355;28;20092;-67
2022/10/20 05:12:08;;;;;;;14.23;6.88;;;;;;;8.44;67.66;100020.03;10385807;28;20135;-67
2022/10/20 05:17:10;;;;;;;11.55;7.35;;;;;;;8.51;67.24;100014.41;10385534;28;20050;-67
2022/10/20 05:22:12;;;;;;;11.60;6.93;;;;;;;8.48;67.33;100011.97;10383125;28;20142;-67
2022/10/20 05:27:13;;;;;;;15.90;7.10;;;;;;;8.48;67.08;99993.72;10385563;28;20053;-67
2022/10/20 05:32:15;;;;;;;10.38;6.68;;;;;;;8.43;67.05;99985.28;10385839;28;20363;-67
2022/10/20 05:37:17;;;;;;;14.05;7.30;;;;;;;8.35;67.07;99971.78;10391365;28;20884;-67
2022/10/20 05:42:19;;;;;;;17.38;7.60;;;;;;;8.51;66.98;99984.91;10393838;28;20087;-67
2022/10/20 05:47:21;;;;;;;16.08;7.80;;;;;;;8.68;66.90;99995.31;10391264;28;20099;-67
2022/10/20 05:52:26;;;;;;;11.48;6.90;;;;;;;8.64;66.52;99993.78;10392462;28;20486;-67
2022/10/20 05:57:27;;;;;;;13.43;7.85;;;;;;;8.36;66.95;100003.91;10392018;28;20049;-67
2022/10/20 06:02:29;;;;;;;11.80;7.63;;;;;;;8.29;66.92;100000.78;10390660;28;20103;-67
2022/10/20 06:07:31;;;;;;;11.43;7.70;;;;;;;8.40;66.98;100005.44;10389833;28;20049;-67
2022/10/20 06:12:34;;;;;;;14.60;8.38;;;;;;;8.47;66.73;100014.63;10391441;28;20059;-69
2022/10/20 06:17:36;;;;;;;12.20;7.45;;;;;;;8.52;66.49;100002.25;10376785;28;20123;-69
2022/10/20 06:22:38;;;;;;;15.30;7.50;;;;;;;8.57;66.33;100013.25;10391575;28;20053;-69
2022/10/20 06:27:41;;;;;;;14.43;7.90;;;;;;;8.49;66.37;100002.38;10384219;28;20057;-69
2022/10/20 06:32:43;;;;;;;15.43;7.93;;;;;;;8.55;66.35;100023.78;10386315;28;20046;-69
2022/10/20 06:37:45;;;;;;;9.82;7.60;;;;;;;8.75;66.33;100034.03;10384354;28;20053;-69
2022/10/20 06:42:47;;;;;;;13.13;7.93;;;;;;;8.88;66.16;100044.69;10382180;28;20128;-67
2022/10/20 06:47:49;;;;;;;16.50;9.30;;;;;;;9.04;66.04;100055.19;10383270;28;20107;-71
2022/10/20 06:52:50;;;;;;;13.77;7.95;;;;;;;8.96;65.74;100031.25;10384281;28;20409;-71
2022/10/20 06:57:52;;;;;;;10.35;7.15;;;;;;;8.84;65.98;100032.72;10385843;28;20045;-71
2022/10/20 07:02:54;;;;;;;16.20;7.63;;;;;;;9.05;65.64;100033.41;10388080;28;20053;-71
2022/10/20 07:07:56;;;;;;;12.80;8.70;;;;;;;9.33;65.61;100047.53;10385190;28;20263;-71
2022/10/20 07:12:58;;;;;;;14.48;8.32;;;;;;;9.63;65.05;100058.94;10386973;28;20148;-72
2022/10/20 07:18:00;;;;;;;12.23;8.30;;;;;;;9.95;64.31;100061.63;10387324;28;20052;-71
2022/10/20 07:23:01;;;;;;;11.90;8.90;;;;;;;10.30;63.80;100039.56;10386383;28;20065;-72
2022/10/20 07:28:03;;;;;;;13.77;7.82;;;;;;;10.18;63.24;100021.97;10383032;28;20053;-71
2022/10/20 07:33:06;;;;;;;11.35;7.82;;;;;;;10.26;63.59;100033.69;10386196;28;20057;-72
2022/10/20 07:38:08;;;;;;;15.25;9.50;;;;;;;10.45;63.73;100016.03;10384630;28;20049;-72
2022/10/20 07:43:10;;;;;;;10.90;8.20;;;;;;;10.49;63.16;100006.22;10385772;28;20486;-71
2022/10/20 07:48:12;;;;;;;14.55;8.70;;;;;;;10.76;62.68;100014.22;10384625;28;20107;-72
2022/10/20 07:53:14;;;;;;;12.02;8.10;;;;;;;10.91;62.21;100008.91;10382582;28;20045;-71
2022/10/20 07:58:16;;;;;;;17.27;8.45;;;;;;;10.97;62.25;100034.72;10385918;28;20046;-71
2022/10/20 08:03:17;;;;;;;12.75;9.10;;;;;;;10.91;62.45;100005.47;10384332;28;20462;-71
2022/10/20 08:08:19;;;;;;;11.57;8.07;;;;;;;10.84;62.35;99996.28;10384295;28;20049;-72
2022/10/20 08:13:21;;;;;;;12.68;8.45;;;;;;;10.84;62.03;99989.28;10383039;28;20152;-72
2022/10/20 08:18:23;;;;;;;16.00;8.23;;;;;;;10.93;61.99;99993.97;10384534;28;20053;-72
2022/10/20 08:23:25;;;;;;;14.73;8.95;;;;;;;11.21;61.54;99983.53;10384351;28;20059;-72
2022/10/20 08:28:27;;;;;;;10.77;8.23;;;;;;;11.33;61.35;99984.56;10384441;28;20064;-72
2022/10/20 08:33:29;;;;;;;11.73;8.50;;;;;;;11.54;60.83;99961.44;10385000;28;20053;-71
2022/10/20 08:38:32;;;;;;;17.08;8.35;;;;;;;11.57;61.12;99967.31;10381468;28;20336;-72
2022/10/20 08:43:39;;;;;;;13.38;8.20;;;;;;;11.82;60.51;99936.00;10379313;28;20058;-72
2022/10/20 08:48:41;;;;;;;13.95;7.63;;;;;;;11.89;60.67;99952.16;10367595;28;20061;-71
2022/10/20 08:53:45;;;;;;;13.05;8.32;;;;;;;12.05;60.40;99932.69;10376261;28;20057;-72
2022/10/20 08:58:47;;;;;;;12.77;8.63;;;;;;;12.14;60.44;99967.97;10374613;28;20072;-71
2022/10/20 09:03:58;;;;;;;15.38;9.32;;;;;;;12.15;60.76;99946.88;10373150;28;20119;-71
2022/10/20 09:09:00;;;;;;;14.02;9.30;;;;;;;12.46;60.67;99948.34;10366859;28;20856;-71
2022/10/20 09:14:02;;;;;;;13.88;9.40;;;;;;;12.97;59.47;99959.69;10386096;28;20056;-71
2022/10/20 09:19:12;;;;;;;15.13;9.05;;;;;;;13.52;58.32;99951.44;10371018;28;20498;-72
2022/10/20 09:24:15;;;;;;;14.90;9.27;;;;;;;13.62;58.29;99960.34;10385141;28;20060;-72
2022/10/20 09:29:21;;;;;;;15.75;8.90;;;;;;;13.54;58.04;99954.78;10382553;28;20045;-72
2022/10/20 09:34:28;;;;;;;13.13;9.50;;;;;;;13.43;58.49;99960.00;10383813;28;20134;-72
2022/10/20 09:39:38;;;;;;;13.52;9.55;;;;;;;13.46;58.38;99949.25;10383959;28;20052;-72
2022/10/20 09:44:57;;;;;;;14.85;9.35;;;;;;;13.61;58.38;99956.06;10383500;28;20075;-72
2022/10/20 09:50:05;;;;;;;19.55;10.15;;;;;;;13.67;58.40;99940.69;10381277;28;20139;-72
2022/10/20 09:55:21;;;;;;;14.52;10.05;;;;;;;13.75;58.92;99932.25;10381114;28;20572;-72
2022/10/20 10:00:34;;;;;;;17.38;12.05;;;;;;;13.56;59.17;99926.63;10383533;28;20443;-72
2022/10/20 10:05:39;;;;;;;16.95;10.98;;;;;;;13.60;58.92;99941.22;10378239;28;20056;-72
2022/10/20 10:10:43;;;;;;;16.05;11.05;;;;;;;13.70;59.28;99934.34;10417475;28;20057;-71
2022/10/20 10:15:45;;;;;;;16.30;11.45;;;;;;;13.82;59.27;99936.09;10383398;28;20045;-72
2022/10/20 10:20:58;;;;;;;19.02;11.38;;;;;;;14.07;58.66;99943.84;10384310;28;20179;-72
2022/10/20 10:26:00;;;;;;;16.13;11.18;;;;;;;14.01;58.40;99928.53;10383628;28;20107;-72
2022/10/20 10:31:17;;;;;;;20.80;12.40;;;;;;;13.70;59.49;99916.78;10376126;28;20056;-72
2022/10/20 10:36:33;;;;;;;15.18;12.10;;;;;;;13.55;59.47;99935.47;10371591;28;20080;-72
2022/10/20 10:41:59;;;;;;;15.20;12.25;;;;;;;13.60;59.22;99928.09;10380252;28;20136;-72
2022/10/20 10:47:19;;;;;;;16.63;12.00;;;;;;;13.60;59.59;99902.66;10377530;28;20054;-72
2022/10/20 10:52:40;;;;;;;18.90;13.45;;;;;;;13.68;59.66;99881.91;10383691;28;20065;-73
2022/10/20 10:57:57;;;;;;;19.17;12.85;;;;;;;13.55;60.52;99872.41;10378588;28;20053;-71
2022/10/20 11:03:17;;;;;;;19.67;14.35;;;;;;;13.77;60.04;99862.84;10381796;28;20057;-72
2022/10/20 11:08:25;;;;;;;21.00;13.60;;;;;;;13.73;60.33;99865.81;10380222;28;20082;-72
2022/10/20 11:13:40;;;;;;;20.10;14.00;;;;;;;13.83;59.49;99861.53;10380820;28;20065;-72
2022/10/20 11:18:57;;;;;;;20.15;15.00;;;;;;;13.71;59.99;99847.53;10375371;28;20050;-73
2022/10/20 11:24:19;;;;;;;22.88;14.80;;;;;;;13.78;60.11;99851.34;10368162;28;20080;-72
2022/10/20 11:29:53;;;;;;;26.25;15.75;;;;;;;13.63;60.12;99856.91;10379211;28;20068;-72
2022/10/20 11:35:00;;;;;;;21.65;15.77;;;;;;;13.58;60.68;99885.31;10374806;28;20061;-73
2022/10/20 11:40:08;;;;;;;21.73;16.27;;;;;;;13.65;60.11;99903.16;10382782;28;20103;-72
2022/10/20 11:45:36;;;;;;;30.15;16.73;;;;;;;13.72;59.82;99908.78;10380246;28;20053;-72
2022/10/20 11:50:41;;;;;;;27.98;16.50;;;;;;;13.61;60.51;99909.59;10376718;28;20131;-73
2022/10/20 11:56:25;;;;;;;23.98;15.25;;;;;;;13.60;60.51;99902.66;10378907;28;20232;-72
2022/10/20 12:01:32;;;;;;;21.70;15.63;;;;;;;13.58;60.76;99906.34;10377806;28;20049;-73
2022/10/20 12:06:56;;;;;;;24.00;16.83;;;;;;;13.44;60.51;99891.56;10379146;28;20087;-73
2022/10/20 12:12:12;;;;;;;24.50;16.73;;;;;;;13.29;60.91;99894.44;10383741;28;20057;-73
2022/10/20 12:17:20;;;;;;;23.33;17.00;;;;;;;13.24;61.26;99891.28;10378545;28;20233;-73
2022/10/20 12:22:23;;;;;;;22.98;18.70;;;;;;;13.09;62.33;99880.06;10382044;28;20057;-73
2022/10/20 12:27:26;;;;;;;29.08;19.17;;;;;;;12.92;63.02;99876.00;10377798;28;20528;-72
2022/10/20 12:32:28;;;;;;;28.00;19.35;;;;;;;12.75;63.67;99873.75;10384625;28;20422;-73
2022/10/20 12:37:33;;;;;;;30.63;20.50;;;;;;;12.73;64.05;99870.38;10377661;28;20080;-73
2022/10/20 12:42:45;;;;;;;28.35;20.25;;;;;;;12.79;64.03;99877.84;10380628;28;20049;-73
2022/10/20 12:48:00;;;;;;;27.45;20.98;;;;;;;12.63;65.65;99843.13;10379345;28;20300;-74
2022/10/20 12:53:25;;;;;;;28.02;19.42;;;;;;;12.57;65.40;99835.66;10364163;28;20121;-72
2022/10/20 12:58:32;;;;;;;27.08;19.48;;;;;;;12.68;65.17;99817.38;10372402;28;20421;-73
2022/10/20 13:03:42;;;;;;;33.65;21.42;;;;;;;12.73;65.40;99814.44;10376643;28;20162;-73
2022/10/20 13:09:09;;;;;;;24.77;19.67;;;;;;;12.75;66.00;99808.13;10383347;28;20076;-74
2022/10/20 13:14:11;;;;;;;28.50;20.00;;;;;;;12.89;65.46;99805.38;10379932;28;20063;-73
2022/10/20 13:19:19;;;;;;;27.00;18.80;;;;;;;12.95;65.53;99802.31;10382339;28;20107;-74
2022/10/20 13:24:31;;;;;;;31.63;18.83;;;;;;;13.18;65.78;99799.81;10383451;28;20107;-74
2022/10/20 13:29:42;;;;;;;26.58;20.10;;;;;;;13.30;65.36;99798.91;10383224;28;20053;-74
2022/10/20 13:35:03;;;;;;;27.20;20.88;;;;;;;13.40;65.41;99799.91;10383972;28;20076;-73
2022/10/20 13:40:19;;;;;;;26.92;19.05;;;;;;;13.40;65.15;99803.41;10366273;28;20565;-74
2022/10/20 13:45:38;;;;;;;29.05;21.63;;;;;;;13.45;65.28;99800.47;10384081;28;20045;-73
2022/10/20 13:50:46;;;;;;;28.88;20.23;;;;;;;13.50;65.49;99801.81;10380777;28;20055;-73
2022/10/20 13:56:05;;;;;;;31.77;22.55;;;;;;;13.48;66.19;99797.59;10389065;28;20141;-73
2022/10/20 14:01:18;;;;;;;24.75;18.73;;;;;;;13.56;65.65;99796.09;10390337;28;20060;-73
2022/10/20 14:06:26;;;;;;;26.67;18.60;;;;;;;13.58;65.55;99802.06;10390471;28;20126;-74
2022/10/20 14:11:30;;;;;;;31.25;17.40;;;;;;;13.59;65.33;99810.78;10389827;28;20049;-73
2022/10/20 14:16:32;;;;;;;26.33;19.00;;;;;;;13.53;65.17;99816.50;10386992;28;20059;-73
2022/10/20 14:21:48;;;;;;;28.85;18.27;;;;;;;13.44;65.70;99814.53;10389704;28;20045;-74
2022/10/20 14:26:50;;;;;;;29.02;20.95;;;;;;;13.33;66.15;99825.78;10387778;28;20049;-73
2022/10/20 14:31:53;;;;;;;28.50;20.23;;;;;;;13.23;66.58;99819.53;10377045;28;20414;-74
2022/10/20 14:36:56;;;;;;;27.67;20.08;;;;;;;13.22;66.75;99824.91;10388628;28;20397;-74
2022/10/20 14:42:00;;;;;;;32.67;24.30;;;;;;;13.10;67.34;99815.28;10389013;28;20056;-74
2022/10/20 14:47:03;;;;;;;41.15;26.17;;;;;;;12.96;67.79;99803.97;10388054;28;20076;-73
2022/10/20 14:52:20;;;;;;;39.00;25.75;;;;;;;12.79;68.68;99814.00;10387154;28;20045;-74
2022/10/20 14:57:49;;;;;;;36.42;25.10;;;;;;;12.64;69.34;99826.41;10387534;28;20049;-74
2022/10/20 15:02:55;;;;;;;44.80;29.00;;;;;;;12.68;69.31;99806.06;10385216;28;20045;-73
2022/10/20 15:08:07;;;;;;;59.05;35.72;;;;;;;12.63;70.11;99798.50;10379071;28;20053;-74
2022/10/20 15:13:22;;;;;;;54.38;34.63;;;;;;;12.41;70.79;99764.22;10384400;28;20045;-74
2022/10/20 15:18:29;;;;;;;49.13;32.58;;;;;;;12.42;70.34;99731.81;10384699;28;20041;-74
2022/10/20 15:23:31;;;;;;;50.47;32.58;;;;;;;12.38;70.71;99761.81;10377175;28;20669;-74
2022/10/20 15:28:37;;;;;;;43.80;27.08;;;;;;;12.40;70.63;99785.31;10386295;28;20057;-74
2022/10/20 15:33:41;;;;;;;41.25;27.92;;;;;;;12.60;70.08;99771.66;10386243;28;20049;-73
2022/10/20 15:38:43;;;;;;;58.85;34.08;;;;;;;12.76;70.07;99770.44;10384613;28;20049;-73
2022/10/20 15:43:45;;;;;;;58.42;33.50;;;;;;;12.74;69.88;99759.22;10371484;28;20107;-73
2022/10/20 15:48:47;;;;;;;51.97;32.45;;;;;;;12.91;69.87;99766.72;10385800;28;20557;-74
2022/10/20 15:53:49;;;;;;;56.53;31.98;;;;;;;13.02;69.55;99752.00;10385565;28;20057;-74
2022/10/20 15:58:51;;;;;;;56.13;34.33;;;;;;;12.90;69.68;99748.47;10384610;28;20259;-73
2022/10/20 16:03:54;;;;;;;67.25;36.30;;;;;;;12.81;70.07;99744.72;10385782;28;20061;-74
2022/10/20 16:08:56;;;;;;;56.25;34.55;;;;;;;12.67;70.53;99726.50;10380824;28;20493;-74
2022/10/20 16:13:58;;;;;;;52.13;31.73;;;;;;;12.60;70.39;99729.69;10383435;28;20056;-74
2022/10/20 16:19:01;;;;;;;41.85;27.85;;;;;;;12.63;70.31;99725.03;10382503;28;20235;-74
2022/10/20 16:24:04;;;;;;;94.28;42.92;;;;;;;12.49;70.58;99711.22;10384719;28;20638;-74
2022/10/20 16:29:06;;;;;;;53.97;34.08;;;;;;;12.40;70.71;99711.88;10384211;28;20053;-74
2022/10/20 16:34:08;;;;;;;56.10;32.58;;;;;;;12.35;71.06;99706.97;10384778;28;20208;-74
2022/10/20 16:39:12;;;;;;;59.90;36.35;;;;;;;12.33;71.20;99727.22;10381146;28;20049;-74
2022/10/20 16:44:14;;;;;;;56.40;35.38;;;;;;;12.34;71.43;99714.91;10383900;28;20057;-74
2022/10/20 16:49:16;;;;;;;61.00;35.10;;;;;;;12.38;71.30;99719.84;10382665;28;20084;-74
2022/10/20 16:54:18;;;;;;;67.18;36.25;;;;;;;12.48;71.00;99728.75;10383127;28;20054;-68
2022/10/20 16:59:20;;;;;;;50.80;33.33;;;;;;;12.55;70.62;99716.88;10382859;28;20046;-68
2022/10/20 17:04:22;;;;;;;48.28;31.40;;;;;;;12.32;70.81;99709.78;10382190;28;20053;-68
2022/10/20 17:09:24;;;;;;;54.42;32.75;;;;;;;12.24;71.01;99711.22;10380853;28;20075;-68
2022/10/20 17:14:26;;;;;;;59.42;34.50;;;;;;;12.28;70.90;99705.72;10382788;28;20114;-68
2022/10/20 17:19:28;;;;;;;119.53;45.40;;;;;;;12.22;71.13;99710.50;10383702;28;20326;-68
2022/10/20 17:24:30;;;;;;;81.28;41.80;;;;;;;12.06;71.56;99703.72;10380825;28;20052;-67
2022/10/20 17:29:32;;;;;;;62.40;36.58;;;;;;;12.10;71.40;99712.22;10384701;28;20414;-68
2022/10/20 17:34:34;;;;;;;58.83;33.75;;;;;;;12.22;70.78;99721.84;10390411;28;20050;-68
2022/10/20 17:39:36;;;;;;;73.35;37.72;;;;;;;12.17;70.84;99710.84;10386829;28;20146;-68
2022/10/20 17:44:38;;;;;;;60.72;37.33;;;;;;;11.95;71.17;99721.97;10390311;28;20100;-67
2022/10/20 17:49:40;;;;;;;94.90;43.00;;;;;;;11.87;71.52;99720.81;10389715;28;20053;-67
2022/10/20 17:54:42;;;;;;;64.68;36.88;;;;;;;11.83;71.78;99709.69;10381755;28;20133;-67
2022/10/20 17:59:43;;;;;;;60.47;35.80;;;;;;;11.84;71.77;99697.44;10382980;28;20394;-67
2022/10/20 18:04:54;;;;;;;58.58;35.95;;;;;;;11.96;71.31;99701.84;10386051;28;20050;-68
2022/10/20 18:09:56;;;;;;;60.65;35.20;;;;;;;12.10;71.10;99712.22;10387676;28;20343;-68
2022/10/20 18:14:58;;;;;;;66.43;37.72;;;;;;;12.12;71.38;99719.03;10383109;28;21109;-68
2022/10/20 18:20:00;;;;;;;46.35;29.45;;;;;;;12.02;71.22;99723.22;10388444;28;20045;-68
2022/10/20 18:25:04;;;;;;;74.95;40.00;;;;;;;12.01;70.95;99710.22;10385140;28;20045;-68
2022/10/20 18:30:07;;;;;;;45.00;31.42;;;;;;;11.93;71.35;99709.91;10386174;28;20512;-68
2022/10/20 18:35:09;;;;;;;69.28;37.88;;;;;;;11.94;71.34;99709.81;10386788;28;20128;-68
2022/10/20 18:40:11;;;;;;;41.78;27.90;;;;;;;11.90;71.22;99697.03;10383941;28;20132;-67
2022/10/20 18:45:12;;;;;;;59.45;34.80;;;;;;;11.87;71.23;99697.22;10384359;28;20045;-68
2022/10/20 18:50:15;;;;;;;47.85;30.92;;;;;;;11.77;71.00;99677.84;10381368;28;20060;-68
2022/10/20 18:55:16;;;;;;;55.42;32.92;;;;;;;11.65;71.41;99687.38;10382940;28;20498;-67
2022/10/20 19:00:19;;;;;;;59.45;34.13;;;;;;;11.66;71.39;99696.09;10385196;28;20050;-68
2022/10/20 19:05:21;;;;;;;46.53;29.88;;;;;;;11.67;71.49;99705.59;10385581;28;20057;-69
2022/10/20 19:10:23;;;;;;;69.05;38.92;;;;;;;11.60;71.74;99693.88;10386390;28;21002;-68
2022/10/20 19:15:26;;;;;;;79.78;42.72;;;;;;;11.53;71.79;99682.13;10379658;28;20056;-68
2022/10/20 19:20:30;;;;;;;65.07;37.97;;;;;;;11.57;71.85;99670.50;10384890;28;20517;-69
2022/10/20 19:25:32;;;;;;;77.10;40.42;;;;;;;11.60;71.41;99673.75;10384526;28;20320;-69
2022/10/20 19:30:35;;;;;;;49.40;31.58;;;;;;;11.63;71.48;99667.47;10386154;28;20053;-68
2022/10/20 19:35:36;;;;;;;73.28;38.83;;;;;;;11.58;71.64;99670.38;10384582;28;20045;-68
2022/10/20 19:40:38;;;;;;;65.82;36.63;;;;;;;11.65;71.71;99663.81;10386446;28;20045;-68
2022/10/20 19:45:41;;;;;;;57.60;34.40;;;;;;;11.62;71.80;99650.09;10385198;28;20112;-68
2022/10/20 19:50:48;;;;;;;80.53;40.88;;;;;;;11.62;72.00;99656.13;10384879;28;20053;-68
2022/10/20 19:55:51;;;;;;;54.60;33.75;;;;;;;11.58;71.99;99630.28;10383960;28;20049;-68
2022/10/20 20:00:57;;;;;;;64.72;36.20;;;;;;;11.51;71.97;99627.25;10383412;28;20107;-68
2022/10/20 20:06:03;;;;;;;91.00;42.67;;;;;;;11.45;72.01;99617.19;10367348;28;20053;-68
2022/10/20 20:11:05;;;;;;;50.13;32.83;;;;;;;11.36;72.17;99617.78;10383766;28;20445;-68
2022/10/20 20:16:07;;;;;;;68.53;38.42;;;;;;;11.34;72.29;99622.31;10381908;28;20401;-68
2022/10/20 20:21:09;;;;;;;55.75;34.50;;;;;;;11.51;71.88;99631.63;10383332;28;20045;-68
2022/10/20 20:26:11;;;;;;;46.72;30.20;;;;;;;11.67;71.42;99614.75;10382290;28;20597;-68
2022/10/20 20:31:16;;;;;;;44.50;30.48;;;;;;;11.61;71.75;99601.25;10383853;28;20078;-68
2022/10/20 20:36:19;;;;;;;56.60;32.15;;;;;;;11.57;71.98;99599.78;10383739;28;20092;-67
2022/10/20 20:41:23;;;;;;;59.83;35.38;;;;;;;11.67;71.83;99593.81;10377101;28;20063;-68
2022/10/20 20:46:28;;;;;;;60.88;35.00;;;;;;;11.74;71.84;99602.94;10381794;28;20457;-67
2022/10/20 20:51:32;;;;;;;104.97;52.60;;;;;;;11.95;71.72;99618.91;10383429;28;20655;-67
2022/10/20 20:56:35;;;;;;;55.83;33.60;;;;;;;11.90;71.43;99618.41;10382500;28;20107;-68
2022/10/20 21:01:37;;;;;;;61.63;36.92;;;;;;;11.71;72.04;99607.53;10381476;28;20060;-67
2022/10/20 21:06:40;;;;;;;65.32;38.53;;;;;;;11.72;72.19;99598.72;10389402;28;20295;-67
2022/10/20 21:12:03;;;;;;;62.08;36.92;;;;;;;11.79;71.83;99600.81;10390910;28;20379;-67
2022/10/20 21:17:05;;;;;;;48.88;33.00;;;;;;;11.90;71.68;99600.91;10389383;28;20592;-67
2022/10/20 21:22:07;;;;;;;76.72;41.67;;;;;;;11.89;71.64;99611.47;10390016;28;20768;-67
2022/10/20 21:27:08;;;;;;;73.93;41.33;;;;;;;11.98;71.54;99605.59;10392532;28;20091;-67
2022/10/20 21:32:10;;;;;;;56.78;34.47;;;;;;;12.00;71.37;99604.56;10389907;28;20045;-67
2022/10/20 21:37:12;;;;;;;59.25;36.13;;;;;;;11.99;71.48;99602.03;10389559;28;20122;-67
2022/10/20 21:42:14;;;;;;;64.10;38.15;;;;;;;11.91;71.43;99602.56;10389053;28;20138;-67
2022/10/20 21:47:16;;;;;;;54.25;33.65;;;;;;;11.74;71.99;99609.94;10388647;28;20060;-67
2022/10/20 21:52:17;;;;;;;55.83;34.25;;;;;;;11.96;71.59;99612.72;10390093;28;20100;-67
2022/10/20 21:57:19;;;;;;;105.18;44.83;;;;;;;12.10;71.53;99602.97;10387301;28;20080;-67
2022/10/20 22:02:21;;;;;;;89.00;42.65;;;;;;;12.24;71.22;99601.97;10387751;28;20057;-67
2022/10/20 22:07:23;;;;;;;63.80;36.85;;;;;;;12.26;71.13;99593.97;10386532;28;20053;-67
2022/10/20 22:12:25;;;;;;;76.45;40.33;;;;;;;12.15;71.38;99589.50;10389703;28;20370;-67
2022/10/20 22:17:28;;;;;;;65.18;37.88;;;;;;;12.30;70.88;99579.72;10387731;28;20049;-67
2022/10/20 22:22:30;;;;;;;77.78;39.97;;;;;;;12.20;71.63;99594.41;10389639;28;20049;-68
2022/10/20 22:27:32;;;;;;;81.35;40.75;;;;;;;12.36;71.26;99590.63;10383645;28;20045;-67
2022/10/20 22:32:43;;;;;;;81.80;39.78;;;;;;;12.52;70.61;99592.97;10386143;28;20679;-66
2022/10/20 22:37:44;;;;;;;55.47;34.05;;;;;;;12.56;70.31;99576.03;10385922;28;20048;-67
2022/10/20 22:42:46;;;;;;;63.63;37.45;;;;;;;12.59;70.47;99570.59;10374535;28;20077;-67
2022/10/20 22:47:48;;;;;;;62.35;35.83;;;;;;;12.61;70.49;99561.66;10386940;28;20612;-67
2022/10/20 22:52:50;;;;;;;73.88;36.90;;;;;;;12.70;70.23;99563.59;10387728;28;20049;-67
2022/10/20 22:57:52;;;;;;;57.45;35.38;;;;;;;12.67;70.44;99566.44;10386524;28;20134;-67
2022/10/20 23:02:54;;;;;;;55.10;34.75;;;;;;;12.73;70.42;99568.63;10385222;28;20103;-67
2022/10/20 23:07:56;;;;;;;74.30;38.83;;;;;;;12.66;70.44;99583.13;10385660;28;20131;-67
2022/10/20 23:12:58;;;;;;;62.65;35.72;;;;;;;12.64;70.42;99582.41;10386543;28;20049;-67